Time;durP1;ratioP1;P1;durP2;ratioP2;P2;SDS_P1;SDS_P2;PMS_P1;PMS_P2;Temp;Humidity;BMP_temperature;BMP_pressure;BME280_temperature;BME280_humidity;BME280_pressure;Samples;Min_cycle;Max_cycle;Signal;HPM_P1;HPM_P2
2023/12/09 00:02:21;;;;;;;;;;;77.10;2227.20;;;;;;5075395;28;19934;-73
2023/12/09 00:04:47;;;;;;;;;;;77.20;2227.20;;;;;;5068586;28;19912;-73
2023/12/09 00:07:12;;;;;;;;;;;77.20;2227.20;;;;;;5068674;28;19936;-73
2023/12/09 00:09:38;;;;;;;;;;;77.20;2227.20;;;;;;5066939;28;20288;-72
2023/12/09 00:12:04;;;;;;;;;;;77.20;2227.20;;;;;;5078588;28;20020;-72
2023/12/09 00:14:29;;;;;;;;;;;77.10;2227.20;;;;;;5071371;28;19912;-73
2023/12/09 00:16:55;;;;;;;;;;;77.10;2227.20;;;;;;5078821;28;19977;-73
2023/12/09 00:19:20;;;;;;;;;;;77.10;2227.20;;;;;;5070802;28;19920;-73
2023/12/09 00:21:46;;;;;;;;;;;77.00;2227.20;;;;;;5074835;28;19908;-73
2023/12/09 00:24:12;;;;;;;;;;;76.80;2227.20;;;;;;5076122;28;19954;-72
2023/12/09 00:26:37;;;;;;;;;;;77.00;2227.20;;;;;;5070560;28;20287;-73
2023/12/09 00:29:03;;;;;;;;;;;77.00;2227.20;;;;;;5072661;28;19966;-72
2023/12/09 00:31:28;;;;;;;;;;;77.00;2227.20;;;;;;5070502;28;19911;-73
2023/12/09 00:33:54;;;;;;;;;;;76.90;2227.20;;;;;;5074390;28;19931;-73
2023/12/09 00:36:20;;;;;;;;;;;76.80;2227.20;;;;;;5066755;28;20288;-72
2023/12/09 00:38:45;;;;;;;;;;;76.90;2227.20;;;;;;5062414;28;19920;-72
2023/12/09 00:41:11;;;;;;;;;;;76.80;2227.20;;;;;;5075534;28;19916;-73
2023/12/09 00:43:37;;;;;;;;;;;52.10;2227.20;;;;;;5075819;28;19916;-73
2023/12/09 00:46:03;;;;;;;;;;;51.90;2227.20;;;;;;5071292;28;19912;-74
2023/12/09 00:48:28;;;;;;;;;;;51.80;2227.20;;;;;;5061902;28;20296;-73
2023/12/09 00:50:54;;;;;;;;;;;51.60;2227.20;;;;;;5069172;28;19943;-73
2023/12/09 00:53:19;;;;;;;;;;;51.60;2227.20;;;;;;5070686;28;19912;-72
2023/12/09 00:55:45;;;;;;;;;;;51.90;2227.20;;;;;;5074195;28;20416;-72
2023/12/09 00:58:10;;;;;;;;;;;51.60;2227.20;;;;;;5067566;28;19919;-73
2023/12/09 01:00:36;;;;;;;;;;;51.50;2227.20;;;;;;5066949;28;19920;-73
2023/12/09 01:03:02;;;;;;;;;;;51.30;2227.20;;;;;;5072650;28;20268;-72
2023/12/09 01:05:27;;;;;;;;;;;51.20;2227.20;;;;;;5069064;28;20367;-73
2023/12/09 01:07:53;;;;;;;;;;;26.50;2201.60;;;;;;5072226;28;19958;-73
2023/12/09 01:10:18;;;;;;;;;;;26.50;2201.60;;;;;;5077135;28;19912;-73
2023/12/09 01:12:44;;;;;;;;;;;51.20;2227.20;;;;;;5068079;28;20011;-72
2023/12/09 01:15:09;;;;;;;;;;;51.30;2227.20;;;;;;5077913;28;19912;-72
2023/12/09 01:17:35;;;;;;;;;;;51.20;2227.20;;;;;;5069796;28;19920;-73
2023/12/09 01:20:01;;;;;;;;;;;26.50;2201.60;;;;;;5077177;28;19925;-73
2023/12/09 01:22:26;;;;;;;;;;;26.50;2201.60;;;;;;5077984;28;20009;-72
2023/12/09 01:24:52;;;;;;;;;;;51.20;2227.20;;;;;;5073554;28;19954;-73
2023/12/09 01:27:17;;;;;;;;;;;51.30;2227.20;;;;;;5073703;28;19935;-73
2023/12/09 01:29:43;;;;;;;;;;;51.30;2227.20;;;;;;5072371;28;19955;-72
2023/12/09 01:32:09;;;;;;;;;;;51.20;2227.20;;;;;;5073650;28;19908;-72
2023/12/09 01:34:36;;;;;;;;;;;26.50;2201.60;;;;;;5073591;28;19917;-73
2023/12/09 01:37:02;;;;;;;;;;;26.50;2201.60;;;;;;5073507;28;19916;-72
2023/12/09 01:39:27;;;;;;;;;;;26.50;2201.60;;;;;;5073231;28;20345;-73
2023/12/09 01:41:53;;;;;;;;;;;51.20;2227.20;;;;;;5073666;28;19977;-73
2023/12/09 01:44:18;;;;;;;;;;;51.20;2227.20;;;;;;5072871;28;19908;-72
2023/12/09 01:46:44;;;;;;;;;;;26.50;2201.60;;;;;;5073147;28;19919;-73
2023/12/09 01:49:10;;;;;;;;;;;26.40;2201.60;;;;;;5073007;28;19924;-73
2023/12/09 01:51:38;;;;;;;;;;;26.50;2201.60;;;;;;5072159;28;20276;-73
2023/12/09 01:54:04;;;;;;;;;;;51.20;2227.20;;;;;;5073006;28;19908;-73
2023/12/09 01:56:30;;;;;;;;;;;51.20;2227.20;;;;;;5073218;28;19909;-73
2023/12/09 01:58:55;;;;;;;;;;;26.50;2201.60;;;;;;5073093;28;19908;-74
2023/12/09 02:01:21;;;;;;;;;;;51.20;2227.20;;;;;;5073163;28;20276;-73
2023/12/09 02:03:48;;;;;;;;;;;51.20;2227.20;;;;;;5073323;28;19909;-73
2023/12/09 02:06:14;;;;;;;;;;;51.30;2227.20;;;;;;5073187;28;19917;-72
2023/12/09 02:08:40;;;;;;;;;;;51.30;2227.20;;;;;;5073225;28;20312;-73
2023/12/09 02:11:11;;;;;;;;;;;51.30;2227.20;;;;;;5073153;28;19944;-73
2023/12/09 02:13:41;;;;;;;;;;;51.20;2227.20;;;;;;5073020;28;19920;-73
2023/12/09 02:16:09;;;;;;;;;;;51.30;2227.20;;;;;;5072158;28;19908;-73
2023/12/09 02:18:35;;;;;;;;;;;51.40;2227.20;;;;;;5088203;28;19928;-73
2023/12/09 02:21:01;;;;;;;;;;;51.30;2227.20;;;;;;5093009;28;19920;-73
2023/12/09 02:23:26;;;;;;;;;;;51.30;2227.20;;;;;;5093074;28;19930;-73
2023/12/09 02:25:54;;;;;;;;;;;51.20;2227.20;;;;;;5092941;28;19995;-73
2023/12/09 02:28:23;;;;;;;;;;;26.50;2201.60;;;;;;5093226;28;19908;-72
2023/12/09 02:30:52;;;;;;;;;;;51.20;2227.20;;;;;;5092643;28;19916;-73
2023/12/09 02:33:18;;;;;;;;;;;51.30;2227.20;;;;;;5089479;28;19938;-72
2023/12/09 02:35:43;;;;;;;;;;;26.40;2201.60;;;;;;5092823;28;20371;-73
2023/12/09 02:38:11;;;;;;;;;;;51.30;2227.20;;;;;;5093215;28;19908;-73
2023/12/09 02:40:37;;;;;;;;;;;51.20;2227.20;;;;;;5074575;28;20077;-73
2023/12/09 02:43:03;;;;;;;;;;;26.50;2201.60;;;;;;5093116;28;19946;-73
2023/12/09 02:45:29;;;;;;;;;;;26.50;2201.60;;;;;;5092817;28;19908;-73
2023/12/09 02:47:55;;;;;;;;;;;26.50;2201.60;;;;;;5092920;28;19918;-73
2023/12/09 02:50:20;;;;;;;;;;;26.50;2201.60;;;;;;5092689;28;20257;-71
2023/12/09 02:52:46;;;;;;;;;;;26.50;2201.60;;;;;;5093132;28;20244;-72
2023/12/09 02:55:11;;;;;;;;;;;26.40;2201.60;;;;;;5093979;28;20279;-73
2023/12/09 02:57:37;;;;;;;;;;;26.50;2201.60;;;;;;5088058;28;20379;-73
2023/12/09 03:00:05;;;;;;;;;;;51.30;2227.20;;;;;;5073241;28;20333;-73
2023/12/09 03:02:31;;;;;;;;;;;51.40;2227.20;;;;;;5096209;28;19915;-73
2023/12/09 03:04:58;;;;;;;;;;;51.50;2227.20;;;;;;5096103;28;19912;-73
2023/12/09 03:07:23;;;;;;;;;;;51.40;2227.20;;;;;;5096531;28;20360;-73
2023/12/09 03:09:49;;;;;;;;;;;51.40;2227.20;;;;;;5096190;28;19981;-73
2023/12/09 03:12:15;;;;;;;;;;;51.40;2227.20;;;;;;5096435;28;19908;-73
2023/12/09 03:14:40;;;;;;;;;;;51.40;2227.20;;;;;;5095822;28;19947;-73
2023/12/09 03:17:06;;;;;;;;;;;51.30;2227.20;;;;;;5095773;28;19969;-73
2023/12/09 03:19:32;;;;;;;;;;;51.50;2227.20;;;;;;5095512;28;19980;-74
2023/12/09 03:21:58;;;;;;;;;;;51.50;2227.20;;;;;;5095948;28;19948;-73
2023/12/09 03:24:24;;;;;;;;;;;51.30;2227.20;;;;;;5096098;28;20491;-72
2023/12/09 03:26:50;;;;;;;;;;;51.20;2227.20;;;;;;5096058;28;19915;-72
2023/12/09 03:29:16;;;;;;;;;;;51.30;2227.20;;;;;;5077754;28;19994;-73
2023/12/09 03:31:42;;;;;;;;;;;51.50;2227.20;;;;;;5095669;28;20012;-73
2023/12/09 03:34:07;;;;;;;;;;;51.40;2227.20;;;;;;5095425;28;19911;-74
2023/12/09 03:36:33;;;;;;;;;;;51.40;2227.20;;;;;;5095647;28;19908;-73
2023/12/09 03:38:59;;;;;;;;;;;51.30;2227.20;;;;;;5095544;28;20041;-74
2023/12/09 03:41:24;;;;;;;;;;;51.50;2227.20;;;;;;5095830;28;19958;-73
2023/12/09 03:43:50;;;;;;;;;;;51.60;2227.20;;;;;;5095637;28;19908;-73
2023/12/09 03:46:15;;;;;;;;;;;51.40;2227.20;;;;;;5095367;28;19955;-73
2023/12/09 03:48:41;;;;;;;;;;;51.30;2227.20;;;;;;5079018;28;20280;-73
2023/12/09 03:51:07;;;;;;;;;;;51.20;2227.20;;;;;;5082510;28;20325;-74
2023/12/09 03:53:32;;;;;;;;;;;51.20;2227.20;;;;;;5095216;28;19908;-73
2023/12/09 03:55:58;;;;;;;;;;;26.50;2201.60;;;;;;5095628;28;19908;-73
2023/12/09 03:58:23;;;;;;;;;;;26.50;2201.60;;;;;;5095273;28;19915;-73
2023/12/09 04:00:49;;;;;;;;;;;26.50;2201.60;;;;;;5077138;28;20288;-73
2023/12/09 04:03:15;;;;;;;;;;;26.50;2201.60;;;;;;5076997;28;20359;-73
2023/12/09 04:05:41;;;;;;;;;;;26.50;2201.60;;;;;;5094824;28;19914;-73
2023/12/09 04:08:09;;;;;;;;;;;26.40;2201.60;;;;;;5095058;28;19915;-73
2023/12/09 04:10:35;;;;;;;;;;;26.30;2201.60;;;;;;5095024;28;19908;-73
2023/12/09 04:13:01;;;;;;;;;;;26.20;2201.60;;;;;;5095155;28;19912;-73
2023/12/09 04:15:29;;;;;;;;;;;26.10;2201.60;;;;;;5094901;28;19908;-73
2023/12/09 04:17:54;;;;;;;;;;;26.10;2201.60;;;;;;5094415;28;19970;-73
2023/12/09 04:20:20;;;;;;;;;;;26.20;2201.60;;;;;;5095130;28;19920;-73
2023/12/09 04:22:47;;;;;;;;;;;26.10;2201.60;;;;;;5094271;28;19908;-73
2023/12/09 04:25:12;;;;;;;;;;;26.40;2201.60;;;;;;5094670;28;19909;-73
2023/12/09 04:27:39;;;;;;;;;;;26.30;2201.60;;;;;;5094190;28;19919;-73
2023/12/09 04:30:05;;;;;;;;;;;26.10;2201.60;;;;;;5094924;28;20322;-73
2023/12/09 04:32:31;;;;;;;;;;;26.10;2201.60;;;;;;5094562;28;20348;-73
2023/12/09 04:34:56;;;;;;;;;;;26.00;2201.60;;;;;;5094246;28;20003;-73
2023/12/09 04:37:22;;;;;;;;;;;25.90;2201.60;;;;;;5094360;28;19908;-74
2023/12/09 04:39:48;;;;;;;;;;;25.90;2201.60;;;;;;5094479;28;19920;-73
2023/12/09 04:42:13;;;;;;;;;;;25.80;2201.60;;;;;;5094349;28;19909;-73
2023/12/09 04:44:39;;;;;;;;;;;25.90;2201.60;;;;;;5094413;28;19969;-73
2023/12/09 04:47:06;;;;;;;;;;;25.90;2201.60;;;;;;5094247;28;19912;-74
2023/12/09 04:49:32;;;;;;;;;;;25.90;2201.60;;;;;;5076189;28;19934;-73
2023/12/09 04:51:57;;;;;;;;;;;26.00;2201.60;;;;;;5094132;28;20347;-73
2023/12/09 04:54:23;;;;;;;;;;;25.80;2201.60;;;;;;5094593;28;19940;-73
2023/12/09 04:56:49;;;;;;;;;;;25.80;2201.60;;;;;;5094080;28;19961;-73
2023/12/09 04:59:14;;;;;;;;;;;25.80;2201.60;;;;;;5094080;28;19912;-73
2023/12/09 05:01:41;;;;;;;;;;;25.70;2201.60;;;;;;5093851;28;19908;-73
2023/12/09 05:04:07;;;;;;;;;;;25.70;2201.60;;;;;;5094063;28;19908;-73
2023/12/09 05:06:32;;;;;;;;;;;25.70;2201.60;;;;;;5093752;28;19909;-73
2023/12/09 05:08:58;;;;;;;;;;;25.70;2201.60;;;;;;5093925;28;20245;-73
2023/12/09 05:11:24;;;;;;;;;;;25.80;2201.60;;;;;;5093656;28;19955;-73
2023/12/09 05:13:49;;;;;;;;;;;26.00;2201.60;;;;;;5093890;28;19915;-72
2023/12/09 05:16:15;;;;;;;;;;;26.10;2201.60;;;;;;5089164;28;20396;-72
2023/12/09 05:18:41;;;;;;;;;;;25.90;2201.60;;;;;;5067690;28;19928;-73
2023/12/09 05:21:07;;;;;;;;;;;25.80;2201.60;;;;;;5071868;28;20376;-73
2023/12/09 05:23:33;;;;;;;;;;;25.80;2201.60;;;;;;5061534;28;20007;-73
2023/12/09 05:25:58;;;;;;;;;;;25.80;2201.60;;;;;;5082741;28;19987;-73
2023/12/09 05:28:24;;;;;;;;;;;25.90;2201.60;;;;;;5067634;28;19938;-73
2023/12/09 05:30:50;;;;;;;;;;;25.90;2201.60;;;;;;5061271;28;19913;-72
2023/12/09 05:33:15;;;;;;;;;;;25.70;2201.60;;;;;;5072721;28;20576;-73
2023/12/09 05:35:41;;;;;;;;;;;25.70;2201.60;;;;;;5076256;28;19909;-73
2023/12/09 05:38:07;;;;;;;;;;;25.60;2201.60;;;;;;5070120;28;20367;-73
2023/12/09 05:40:32;;;;;;;;;;;25.70;2201.60;;;;;;5077573;28;19920;-73
2023/12/09 05:42:58;;;;;;;;;;;25.80;2201.60;;;;;;5071386;28;19913;-73
2023/12/09 05:45:23;;;;;;;;;;;25.80;2201.60;;;;;;5075579;28;20343;-72
2023/12/09 05:47:49;;;;;;;;;;;25.80;2201.60;;;;;;5074029;28;19954;-73
2023/12/09 05:50:15;;;;;;;;;;;25.90;2201.60;;;;;;5074810;28;19916;-73
2023/12/09 05:52:41;;;;;;;;;;;26.00;2201.60;;;;;;5066551;28;19912;-73
2023/12/09 05:55:06;;;;;;;;;;;26.00;2201.60;;;;;;5071575;28;19912;-73
2023/12/09 05:57:32;;;;;;;;;;;26.10;2201.60;;;;;;5063745;28;20012;-73
2023/12/09 05:59:58;;;;;;;;;;;26.00;2201.60;;;;;;5068357;28;19924;-72
2023/12/09 06:02:24;;;;;;;;;;;25.80;2201.60;;;;;;5072179;28;19908;-72
2023/12/09 06:04:49;;;;;;;;;;;25.90;2201.60;;;;;;5072575;28;19913;-73
2023/12/09 06:07:15;;;;;;;;;;;26.00;2201.60;;;;;;5076510;28;19913;-73
2023/12/09 06:09:40;;;;;;;;;;;26.00;2201.60;;;;;;5069432;28;19912;-73
2023/12/09 06:12:06;;;;;;;;;;;25.90;2201.60;;;;;;5074295;28;19912;-72
2023/12/09 06:14:32;;;;;;;;;;;26.10;2201.60;;;;;;5069306;28;20301;-73
2023/12/09 06:16:57;;;;;;;;;;;26.30;2201.60;;;;;;5073036;28;19912;-73
2023/12/09 06:19:23;;;;;;;;;;;26.10;2201.60;;;;;;5076297;28;19920;-73
2023/12/09 06:21:49;;;;;;;;;;;26.00;2201.60;;;;;;5069116;28;19909;-73
2023/12/09 06:24:14;;;;;;;;;;;25.80;2201.60;;;;;;5074339;28;19913;-72
2023/12/09 06:26:44;;;;;;;;;;;26.00;2201.60;;;;;;5068092;28;20356;-73
2023/12/09 06:29:15;;;;;;;;;;;25.80;2201.60;;;;;;5068114;28;19966;-72
2023/12/09 06:31:41;;;;;;;;;;;25.80;2201.60;;;;;;5070914;28;20007;-73
2023/12/09 06:34:07;;;;;;;;;;;26.00;2201.60;;;;;;5073120;28;19959;-72
2023/12/09 06:36:32;;;;;;;;;;;26.00;2201.60;;;;;;5090207;28;19909;-74
2023/12/09 06:38:58;;;;;;;;;;;26.10;2201.60;;;;;;5078113;28;20359;-78
2023/12/09 06:41:24;;;;;;;;;;;26.40;2201.60;;;;;;5071586;28;19920;-73
2023/12/09 06:43:49;;;;;;;;;;;26.50;2201.60;;;;;;5073879;28;20361;-74
2023/12/09 06:46:15;;;;;;;;;;;51.20;2227.20;;;;;;5074621;28;19914;-74
2023/12/09 06:48:41;;;;;;;;;;;51.30;2227.20;;;;;;5077753;28;20062;-74
2023/12/09 06:51:14;;;;;;;;;;;51.40;2227.20;;;;;;5079102;28;19916;-75
2023/12/09 06:53:39;;;;;;;;;;;51.40;2227.20;;;;;;5068794;28;20378;-74
2023/12/09 06:56:06;;;;;;;;;;;51.40;2227.20;;;;;;5079959;28;20003;-74
2023/12/09 06:58:31;;;;;;;;;;;51.40;2227.20;;;;;;5064973;28;20405;-74
2023/12/09 07:00:57;;;;;;;;;;;51.50;2227.20;;;;;;5080716;28;19925;-75
2023/12/09 07:03:22;;;;;;;;;;;51.60;2227.20;;;;;;5064459;28;20345;-74
2023/12/09 07:05:48;;;;;;;;;;;51.50;2227.20;;;;;;5074292;28;19915;-73
2023/12/09 07:08:14;;;;;;;;;;;51.30;2227.20;;;;;;5109518;27;20958;-73
2023/12/09 07:10:43;;;;;;;;;;;51.30;2227.20;;;;;;5076666;28;19912;-74
2023/12/09 07:13:09;;;;;;;;;;;51.20;2227.20;;;;;;5101721;27;19919;-74
2023/12/09 07:15:34;;;;;;;;;;;51.40;2227.20;;;;;;5079355;28;19915;-74
2023/12/09 07:18:00;;;;;;;;;;;51.60;2227.20;;;;;;5077530;28;20360;-74
2023/12/09 07:20:25;;;;;;;;;;;51.70;2227.20;;;;;;5099198;28;19925;-74
2023/12/09 07:22:51;;;;;;;;;;;51.60;2227.20;;;;;;5081456;28;19923;-73
2023/12/09 07:25:16;;;;;;;;;;;51.70;2227.20;;;;;;5068325;28;19993;-74
2023/12/09 07:27:42;;;;;;;;;;;51.90;2227.20;;;;;;5076212;28;19913;-74
2023/12/09 07:30:08;;;;;;;;;;;51.90;2227.20;;;;;;5072561;28;19952;-73
2023/12/09 07:32:33;;;;;;;;;;;52.10;2227.20;;;;;;5074369;28;19915;-74
2023/12/09 07:34:59;;;;;;;;;;;52.10;2227.20;;;;;;5110420;27;19912;-74
2023/12/09 07:37:25;;;;;;;;;;;76.90;2227.20;;;;;;5077817;28;19916;-74
2023/12/09 07:39:50;;;;;;;;;;;77.00;2227.20;;;;;;5069386;28;20019;-74
2023/12/09 07:42:16;;;;;;;;;;;77.10;2227.20;;;;;;5073890;28;20290;-73
2023/12/09 07:44:41;;;;;;;;;;;77.20;2227.20;;;;;;5073534;28;19919;-74
2023/12/09 07:47:07;;;;;;;;;;;77.20;2227.20;;;;;;5099681;28;19919;-74
2023/12/09 07:49:32;;;;;;;;;;;77.30;2227.20;;;;;;5101560;27;19917;-73
2023/12/09 07:51:58;;;;;;;;;;;77.40;2227.20;;;;;;5063045;28;19916;-74
2023/12/09 07:54:24;;;;;;;;;;;77.50;2227.20;;;;;;5062261;28;19909;-75
2023/12/09 07:56:49;;;;;;;;;;;77.40;2227.20;;;;;;5073663;28;19974;-75
2023/12/09 07:59:15;;;;;;;;;;;77.60;2227.20;;;;;;5101592;28;19916;-76
2023/12/09 08:01:40;;;;;;;;;;;77.60;2227.20;;;;;;5064155;28;19974;-74
2023/12/09 08:04:06;;;;;;;;;;;77.60;2227.20;;;;;;5081960;28;20271;-75
2023/12/09 08:06:32;;;;;;;;;;;77.70;2227.20;;;;;;5069463;28;19913;-75
2023/12/09 08:08:57;;;;;;;;;;;77.60;2227.20;;;;;;5076625;28;20264;-75
2023/12/09 08:11:23;;;;;;;;;;;77.70;2227.20;;;;;;5070757;28;20361;-75
2023/12/09 08:13:49;;;;;;;;;;;102.40;2227.20;;;;;;5071929;28;19935;-75
2023/12/09 08:16:14;;;;;;;;;;;77.70;2227.20;;;;;;5077390;28;19913;-74
2023/12/09 08:18:42;;;;;;;;;;;77.70;2227.20;;;;;;5074755;28;19927;-74
2023/12/09 08:21:07;;;;;;;;;;;77.70;2227.20;;;;;;5080280;28;19928;-74
2023/12/09 08:23:33;;;;;;;;;;;77.70;2227.20;;;;;;5070310;28;20315;-74
2023/12/09 08:25:58;;;;;;;;;;;77.70;2227.20;;;;;;5106507;27;19912;-75
2023/12/09 08:28:27;;;;;;;;;;;102.50;2227.20;;;;;;5074384;28;19916;-75
2023/12/09 08:30:53;;;;;;;;;;;102.50;2227.20;;;;;;5073735;28;19917;-74
2023/12/09 08:33:18;;;;;;;;;;;102.70;2227.20;;;;;;5069814;28;20024;-74
2023/12/09 08:35:44;;;;;;;;;;;102.80;2227.20;;;;;;5100588;28;19977;-74
2023/12/09 08:38:10;;;;;;;;;;;102.80;2227.20;;;;;;5067544;28;19982;-74
2023/12/09 08:40:35;;;;;;;;;;;102.90;2227.20;;;;;;5071838;28;19974;-74
2023/12/09 08:43:01;;;;;;;;;;;102.90;2227.20;;;;;;5075068;28;19915;-74
2023/12/09 08:45:26;;;;;;;;;;;102.80;2227.20;;;;;;5061965;28;19913;-75
2023/12/09 08:47:52;;;;;;;;;;;102.90;2227.20;;;;;;5073910;28;19963;-74
2023/12/09 08:50:18;;;;;;;;;;;103.00;2227.20;;;;;;5066496;28;19921;-71
2023/12/09 08:52:43;;;;;;;;;;;103.00;2227.20;;;;;;5069655;28;19924;-75
2023/12/09 08:55:09;;;;;;;;;;;103.10;2227.20;;;;;;5062476;28;19958;-74
2023/12/09 08:57:35;;;;;;;;;;;103.20;2227.20;;;;;;5065693;28;20054;-74
2023/12/09 09:00:07;;;;;;;;;;;103.10;2227.20;;;;;;5073216;28;20000;-75
2023/12/09 09:02:32;;;;;;;;;;;103.30;2227.20;;;;;;5069452;28;19908;-74
2023/12/09 09:04:58;;;;;;;;;;;103.30;2227.20;;;;;;5075233;28;20003;-74
2023/12/09 09:07:23;;;;;;;;;;;128.10;2252.80;;;;;;5071133;28;19913;-74
2023/12/09 09:09:49;;;;;;;;;;;128.10;2252.80;;;;;;5075459;28;20261;-76
2023/12/09 09:12:15;;;;;;;;;;;103.30;2227.20;;;;;;5076428;28;19923;-74
2023/12/09 09:14:40;;;;;;;;;;;128.20;2252.80;;;;;;5074685;28;19912;-74
2023/12/09 09:17:06;;;;;;;;;;;128.40;2252.80;;;;;;5108716;27;20346;-73
2023/12/09 09:19:31;;;;;;;;;;;128.50;2252.80;;;;;;5074341;28;19975;-75
2023/12/09 09:21:59;;;;;;;;;;;128.40;2252.80;;;;;;5071643;28;20202;-75
2023/12/09 09:24:25;;;;;;;;;;;128.60;2252.80;;;;;;5111831;27;19955;-75
2023/12/09 09:26:50;;;;;;;;;;;128.70;2252.80;;;;;;5074826;28;19908;-75
2023/12/09 09:29:16;;;;;;;;;;;128.70;2252.80;;;;;;5102216;28;19913;-74
2023/12/09 09:31:41;;;;;;;;;;;128.80;2252.80;;;;;;5072276;28;19954;-75
2023/12/09 09:34:07;;;;;;;;;;;128.90;2252.80;;;;;;5070915;28;19920;-74
2023/12/09 09:36:32;;;;;;;;;;;153.80;2252.80;;;;;;5068592;28;20318;-73
2023/12/09 09:38:58;;;;;;;;;;;154.00;2252.80;;;;;;5071174;28;19912;-75
2023/12/09 09:41:39;;;;;;;;;;;154.00;2252.80;;;;;;5068483;28;20383;-74
2023/12/09 09:44:11;;;;;;;;;;;153.90;2252.80;;;;;;5064168;28;19924;-74
2023/12/09 09:46:38;;;;;;;;;;;154.00;2252.80;;;;;;5074991;28;19939;-75
2023/12/09 09:49:06;;;;;;;;;;;154.10;2252.80;;;;;;5074111;28;19923;-76
2023/12/09 09:51:32;;;;;;;;;;;154.30;2252.80;;;;;;5078918;28;19962;-75
2023/12/09 09:54:16;;;;;;;;;;;154.50;2252.80;;;;;;5071065;28;20054;-75
2023/12/09 09:56:42;;;;;;;;;;;154.40;2252.80;;;;;;5070573;28;19943;-76
2023/12/09 09:59:09;;;;;;;;;;;154.50;2252.80;;;;;;5071912;28;19963;-77
2023/12/09 10:01:35;;;;;;;;;;;179.40;2252.80;;;;;;5074608;28;19917;-76
2023/12/09 10:04:01;;;;;;;;;;;179.60;2252.80;;;;;;5069561;28;19913;-76
2023/12/09 10:06:28;;;;;;;;;;;179.70;2252.80;;;;;;5074574;28;19912;-75
2023/12/09 10:08:53;;;;;;;;;;;179.40;2252.80;;;;;;5114169;27;19951;-76
2023/12/09 10:11:19;;;;;;;;;;;179.40;2252.80;;;;;;5112161;27;19947;-75
2023/12/09 10:13:45;;;;;;;;;;;179.40;2252.80;;;;;;5070423;28;19917;-76
2023/12/09 10:16:10;;;;;;;;;;;179.40;2252.80;;;;;;5079389;28;19914;-76
2023/12/09 10:18:36;;;;;;;;;;;179.70;2252.80;;;;;;5102685;28;19921;-75
2023/12/09 10:21:04;;;;;;;;;;;179.80;2252.80;;;;;;5074853;28;19978;-76
2023/12/09 10:23:30;;;;;;;;;;;179.60;2252.80;;;;;;5070862;28;19919;-78
2023/12/09 10:25:58;;;;;;;;;;;179.40;2252.80;;;;;;5066162;28;20007;-76
2023/12/09 10:28:24;;;;;;;;;;;179.70;2252.80;;;;;;5080748;28;19912;-76
2023/12/09 10:30:50;;;;;;;;;;;179.80;2252.80;;;;;;5071746;28;19919;-75
2023/12/09 10:33:16;;;;;;;;;;;180.00;2252.80;;;;;;5069210;28;20398;-76
2023/12/09 10:35:42;;;;;;;;;;;180.10;2252.80;;;;;;5058740;28;20022;-76
2023/12/09 10:38:08;;;;;;;;;;;180.00;2252.80;;;;;;5102195;27;20394;-76
2023/12/09 10:40:34;;;;;;;;;;;180.00;2252.80;;;;;;5070171;28;19943;-76
2023/12/09 10:43:03;;;;;;;;;;;180.10;2252.80;;;;;;5100380;27;20026;-75
2023/12/09 10:45:28;;;;;;;;;;;204.90;2252.80;;;;;;5068300;28;20030;-75
2023/12/09 10:47:54;;;;;;;;;;;204.90;2252.80;;;;;;5072518;28;20141;-75
2023/12/09 10:50:20;;;;;;;;;;;204.90;2252.80;;;;;;5060206;28;20288;-75
2023/12/09 10:52:45;;;;;;;;;;;205.10;2252.80;;;;;;5076794;28;20372;-75
2023/12/09 10:55:11;;;;;;;;;;;205.30;2252.80;;;;;;5078770;28;19920;-75
2023/12/09 10:57:38;;;;;;;;;;;205.50;2252.80;;;;;;5102342;27;19913;-76
2023/12/09 11:00:10;;;;;;;;;;;205.50;2252.80;;;;;;5074442;28;19966;-76
2023/12/09 11:02:43;;;;;;;;;;;205.70;2252.80;;;;;;5072375;28;19912;-76
2023/12/09 11:05:09;;;;;;;;;;;;;;;;;;5099467;28;20005;-74
2023/12/09 11:07:36;;;;;;;;;;;205.70;2252.80;;;;;;5110469;27;19912;-75
2023/12/09 11:10:02;;;;;;;;;;;230.50;2252.80;;;;;;5074711;28;20038;-74
2023/12/09 11:12:30;;;;;;;;;;;230.50;2252.80;;;;;;5075243;28;19981;-74
2023/12/09 11:15:00;;;;;;;;;;;205.70;2252.80;;;;;;5065815;28;19916;-74
2023/12/09 11:17:36;;;;;;;;;;;205.60;2252.80;;;;;;5066950;28;20407;-74
2023/12/09 11:20:19;;;;;;;;;;;205.40;2252.80;;;;;;5080590;28;20019;-75
2023/12/09 11:22:46;;;;;;;;;;;205.20;2252.80;;;;;;5073260;28;19923;-75
2023/12/09 11:25:19;;;;;;;;;;;204.90;2252.80;;;;;;5074381;28;19912;-75
2023/12/09 11:27:45;;;;;;;;;;;205.10;2252.80;;;;;;5076503;28;20206;-75
2023/12/09 11:30:30;;;;;;;;;;;205.00;2252.80;;;;;;5076674;28;19952;-76
2023/12/09 11:32:56;;;;;;;;;;;205.00;2252.80;;;;;;5106648;27;20387;-75
2023/12/09 11:35:23;;;;;;;;;;;205.10;2252.80;;;;;;5057686;28;19916;-75
2023/12/09 11:37:49;;;;;;;;;;;205.10;2252.80;;;;;;5070360;28;19915;-79
2023/12/09 11:40:15;;;;;;;;;;;205.50;2252.80;;;;;;5066537;28;19924;-76
2023/12/09 11:42:41;;;;;;;;;;;205.30;2252.80;;;;;;5102524;27;19966;-77
2023/12/09 11:45:07;;;;;;;;;;;205.20;2252.80;;;;;;5065130;28;20383;-76
2023/12/09 11:47:33;;;;;;;;;;;205.00;2252.80;;;;;;5074776;28;19952;-75
2023/12/09 11:49:58;;;;;;;;;;;204.80;2252.80;;;;;;5078155;28;19978;-75
2023/12/09 11:52:24;;;;;;;;;;;204.90;2252.80;;;;;;5066571;28;19920;-75
2023/12/09 11:55:00;;;;;;;;;;;205.00;2252.80;;;;;;5070537;28;19939;-74
2023/12/09 11:57:27;;;;;;;;;;;205.20;2252.80;;;;;;5074690;28;19912;-75
2023/12/09 11:59:53;;;;;;;;;;;;;;;;;;5101830;27;19920;-75
2023/12/09 12:02:19;;;;;;;;;;;;;;;;;;5112328;27;20314;-75
2023/12/09 12:04:45;;;;;;;;;;;;;;;;;;5071159;28;19916;-75
2023/12/09 12:07:11;;;;;;;;;;;;;;;;;;5081235;28;19919;-76
2023/12/09 12:09:38;;;;;;;;;;;;;;;;;;5105184;27;19920;-75
2023/12/09 12:12:04;;;;;;;;;;;;;;;;;;5098206;27;19913;-75
2023/12/09 12:14:31;;;;;;;;;;;;;;;;;;5108345;27;19936;-77
2023/12/09 12:16:57;;;;;;;;;;;;;;;;;;5076589;28;20002;-76
2023/12/09 12:19:23;;;;;;;;;;;;;;;;;;5110639;27;19920;-75
2023/12/09 12:21:49;;;;;;;;;;;;;;;;;;5104089;27;20303;-76
2023/12/09 12:24:15;;;;;;;;;;;;;;;;;;5078172;28;20234;-75
2023/12/09 12:26:41;;;;;;;;;;;;;;;;;;5077417;28;19963;-74
2023/12/09 12:29:07;;;;;;;;;;;;;;;;;;5069479;28;19913;-76
2023/12/09 12:31:33;;;;;;;;;;;179.50;2252.80;;;;;;5069535;28;19923;-74
2023/12/09 12:34:12;;;;;;;;;;;179.40;2252.80;;;;;;5071056;28;19918;-75
2023/12/09 12:36:38;;;;;;;;;;;179.50;2252.80;;;;;;5072437;28;19965;-76
2023/12/09 12:39:05;;;;;;;;;;;179.50;2252.80;;;;;;5108007;27;20002;-75
2023/12/09 12:41:31;;;;;;;;;;;179.50;2252.80;;;;;;5067160;28;19921;-75
2023/12/09 12:43:57;;;;;;;;;;;179.70;2252.80;;;;;;5094561;28;19919;-75
2023/12/09 12:46:23;;;;;;;;;;;179.80;2252.80;;;;;;5101716;27;20269;-75
2023/12/09 12:48:48;;;;;;;;;;;179.90;2252.80;;;;;;5072659;28;19924;-74
2023/12/09 12:51:14;;;;;;;;;;;179.90;2252.80;;;;;;5062498;28;19913;-75
2023/12/09 12:53:40;;;;;;;;;;;179.90;2252.80;;;;;;5070833;28;20024;-75
2023/12/09 12:56:05;;;;;;;;;;;179.90;2252.80;;;;;;5075128;28;19916;-74
2023/12/09 12:58:31;;;;;;;;;;;179.70;2252.80;;;;;;5076308;28;20334;-74
2023/12/09 13:00:57;;;;;;;;;;;179.70;2252.80;;;;;;5073135;28;19925;-76
2023/12/09 13:03:23;;;;;;;;;;;179.70;2252.80;;;;;;5068589;28;19916;-76
2023/12/09 13:05:48;;;;;;;;;;;179.80;2252.80;;;;;;5079200;28;19923;-76
2023/12/09 13:08:14;;;;;;;;;;;179.80;2252.80;;;;;;5063485;28;19919;-75
2023/12/09 13:10:40;;;;;;;;;;;179.70;2252.80;;;;;;5099732;28;20387;-76
2023/12/09 13:13:05;;;;;;;;;;;179.80;2252.80;;;;;;5066080;28;19943;-75
2023/12/09 13:15:31;;;;;;;;;;;179.90;2252.80;;;;;;5075870;28;19913;-74
2023/12/09 13:17:57;;;;;;;;;;;180.00;2252.80;;;;;;5069490;28;20423;-73
2023/12/09 13:20:22;;;;;;;;;;;179.80;2252.80;;;;;;5071927;28;19932;-75
2023/12/09 13:23:01;;;;;;;;;;;179.90;2252.80;;;;;;5070336;28;19952;-75
2023/12/09 13:25:26;;;;;;;;;;;179.90;2252.80;;;;;;5066049;28;19913;-73
2023/12/09 13:27:52;;;;;;;;;;;179.90;2252.80;;;;;;5103170;28;19935;-76
2023/12/09 13:30:18;;;;;;;;;;;179.90;2252.80;;;;;;5074931;28;19917;-74
2023/12/09 13:32:45;;;;;;;;;;;180.00;2252.80;;;;;;5064534;28;19993;-74
2023/12/09 13:35:10;;;;;;;;;;;179.90;2252.80;;;;;;5068206;28;19909;-73
2023/12/09 13:37:36;;;;;;;;;;;179.90;2252.80;;;;;;5064943;28;19909;-73
2023/12/09 13:40:03;;;;;;;;;;;179.90;2252.80;;;;;;5061641;28;20379;-73
2023/12/09 13:42:28;;;;;;;;;;;179.90;2252.80;;;;;;5069055;28;19939;-76
2023/12/09 13:44:54;;;;;;;;;;;179.80;2252.80;;;;;;5064237;28;19916;-74
2023/12/09 13:47:20;;;;;;;;;;;179.90;2252.80;;;;;;5070844;28;19920;-76
2023/12/09 13:49:46;;;;;;;;;;;179.80;2252.80;;;;;;5077713;28;20371;-75